sensor_id;sensor_type;location;lat;lon;timestamp;P1;durP1;ratioP1;P2;durP2;ratioP2
21480;SDS011;10902;48.158;8.634;2023-07-29T00:00:06;6.43;;;3.90;;
21480;SDS011;10902;48.158;8.634;2023-07-29T00:02:53;5.95;;;3.60;;
21480;SDS011;10902;48.158;8.634;2023-07-29T00:05:38;7.22;;;3.72;;
21480;SDS011;10902;48.158;8.634;2023-07-29T00:08:24;5.70;;;3.60;;
21480;SDS011;10902;48.158;8.634;2023-07-29T00:11:10;6.53;;;3.67;;
21480;SDS011;10902;48.158;8.634;2023-07-29T00:13:56;8.40;;;3.33;;
21480;SDS011;10902;48.158;8.634;2023-07-29T00:16:41;8.30;;;4.05;;
21480;SDS011;10902;48.158;8.634;2023-07-29T00:19:27;7.68;;;3.97;;
21480;SDS011;10902;48.158;8.634;2023-07-29T00:22:13;5.68;;;3.72;;
21480;SDS011;10902;48.158;8.634;2023-07-29T00:24:59;5.72;;;3.50;;
21480;SDS011;10902;48.158;8.634;2023-07-29T00:27:45;6.68;;;3.45;;
21480;SDS011;10902;48.158;8.634;2023-07-29T00:30:30;7.90;;;3.30;;
21480;SDS011;10902;48.158;8.634;2023-07-29T00:33:16;6.55;;;3.47;;
21480;SDS011;10902;48.158;8.634;2023-07-29T00:36:02;7.13;;;2.90;;
21480;SDS011;10902;48.158;8.634;2023-07-29T00:38:47;6.70;;;2.80;;
21480;SDS011;10902;48.158;8.634;2023-07-29T00:41:33;5.20;;;2.83;;
21480;SDS011;10902;48.158;8.634;2023-07-29T00:44:19;4.43;;;2.63;;
21480;SDS011;10902;48.158;8.634;2023-07-29T00:47:06;4.82;;;2.72;;
21480;SDS011;10902;48.158;8.634;2023-07-29T00:49:52;7.30;;;3.38;;
21480;SDS011;10902;48.158;8.634;2023-07-29T00:52:38;5.90;;;2.78;;
21480;SDS011;10902;48.158;8.634;2023-07-29T00:55:24;8.15;;;2.70;;
21480;SDS011;10902;48.158;8.634;2023-07-29T00:58:10;7.93;;;2.80;;
21480;SDS011;10902;48.158;8.634;2023-07-29T01:00:55;5.80;;;3.40;;
21480;SDS011;10902;48.158;8.634;2023-07-29T01:03:42;6.50;;;3.47;;
21480;SDS011;10902;48.158;8.634;2023-07-29T01:12:46;8.20;;;3.60;;
21480;SDS011;10902;48.158;8.634;2023-07-29T01:15:55;7.18;;;3.83;;
21480;SDS011;10902;48.158;8.634;2023-07-29T01:18:46;7.80;;;4.00;;
21480;SDS011;10902;48.158;8.634;2023-07-29T01:21:35;6.47;;;3.70;;
21480;SDS011;10902;48.158;8.634;2023-07-29T01:24:21;7.78;;;3.70;;
21480;SDS011;10902;48.158;8.634;2023-07-29T01:27:07;6.45;;;3.65;;
21480;SDS011;10902;48.158;8.634;2023-07-29T01:29:52;8.60;;;3.95;;
21480;SDS011;10902;48.158;8.634;2023-07-29T01:32:46;7.13;;;3.88;;
21480;SDS011;10902;48.158;8.634;2023-07-29T01:36:20;8.50;;;4.28;;
21480;SDS011;10902;48.158;8.634;2023-07-29T01:38:48;6.93;;;3.95;;
21480;SDS011;10902;48.158;8.634;2023-07-29T01:41:34;6.88;;;4.28;;
21480;SDS011;10902;48.158;8.634;2023-07-29T01:44:21;8.30;;;5.18;;
21480;SDS011;10902;48.158;8.634;2023-07-29T01:47:06;8.32;;;5.22;;
21480;SDS011;10902;48.158;8.634;2023-07-29T01:49:52;8.35;;;4.72;;
21480;SDS011;10902;48.158;8.634;2023-07-29T01:52:38;8.43;;;4.90;;
21480;SDS011;10902;48.158;8.634;2023-07-29T01:55:23;8.45;;;4.93;;
21480;SDS011;10902;48.158;8.634;2023-07-29T01:58:09;9.00;;;4.75;;
21480;SDS011;10902;48.158;8.634;2023-07-29T02:00:55;7.05;;;4.50;;
21480;SDS011;10902;48.158;8.634;2023-07-29T02:03:40;7.93;;;4.43;;
21480;SDS011;10902;48.158;8.634;2023-07-29T02:06:26;7.97;;;4.80;;
21480;SDS011;10902;48.158;8.634;2023-07-29T02:09:12;9.73;;;5.18;;
21480;SDS011;10902;48.158;8.634;2023-07-29T02:11:58;10.63;;;4.80;;
21480;SDS011;10902;48.158;8.634;2023-07-29T02:14:43;9.32;;;4.95;;
21480;SDS011;10902;48.158;8.634;2023-07-29T02:17:30;8.25;;;4.97;;
21480;SDS011;10902;48.158;8.634;2023-07-29T02:20:16;6.25;;;3.42;;
21480;SDS011;10902;48.158;8.634;2023-07-29T02:23:01;6.82;;;4.18;;
21480;SDS011;10902;48.158;8.634;2023-07-29T02:25:47;7.90;;;4.63;;
21480;SDS011;10902;48.158;8.634;2023-07-29T02:28:32;7.57;;;3.60;;
21480;SDS011;10902;48.158;8.634;2023-07-29T02:31:21;10.35;;;4.50;;
21480;SDS011;10902;48.158;8.634;2023-07-29T02:34:08;8.40;;;5.07;;
21480;SDS011;10902;48.158;8.634;2023-07-29T02:36:54;8.02;;;4.93;;
21480;SDS011;10902;48.158;8.634;2023-07-29T02:39:39;9.38;;;4.90;;
21480;SDS011;10902;48.158;8.634;2023-07-29T02:42:25;9.50;;;5.88;;
21480;SDS011;10902;48.158;8.634;2023-07-29T02:45:11;11.10;;;5.50;;
21480;SDS011;10902;48.158;8.634;2023-07-29T02:47:56;9.13;;;5.93;;
21480;SDS011;10902;48.158;8.634;2023-07-29T02:50:42;10.25;;;5.95;;
21480;SDS011;10902;48.158;8.634;2023-07-29T02:53:28;10.95;;;6.03;;
21480;SDS011;10902;48.158;8.634;2023-07-29T02:56:13;9.90;;;5.30;;
21480;SDS011;10902;48.158;8.634;2023-07-29T02:58:59;9.80;;;5.90;;
21480;SDS011;10902;48.158;8.634;2023-07-29T03:01:45;7.72;;;4.60;;
21480;SDS011;10902;48.158;8.634;2023-07-29T03:04:31;8.20;;;5.05;;
21480;SDS011;10902;48.158;8.634;2023-07-29T03:07:16;7.90;;;5.10;;
21480;SDS011;10902;48.158;8.634;2023-07-29T03:10:02;9.65;;;5.18;;
21480;SDS011;10902;48.158;8.634;2023-07-29T03:12:48;8.38;;;5.10;;
21480;SDS011;10902;48.158;8.634;2023-07-29T03:15:33;8.98;;;5.45;;
21480;SDS011;10902;48.158;8.634;2023-07-29T03:18:20;8.10;;;4.85;;
21480;SDS011;10902;48.158;8.634;2023-07-29T03:21:05;8.13;;;4.88;;
21480;SDS011;10902;48.158;8.634;2023-07-29T03:23:51;8.45;;;4.78;;
21480;SDS011;10902;48.158;8.634;2023-07-29T03:26:37;8.70;;;5.00;;
21480;SDS011;10902;48.158;8.634;2023-07-29T03:29:22;7.60;;;4.70;;
21480;SDS011;10902;48.158;8.634;2023-07-29T03:32:08;7.15;;;4.72;;
21480;SDS011;10902;48.158;8.634;2023-07-29T03:34:53;9.43;;;4.75;;
21480;SDS011;10902;48.158;8.634;2023-07-29T03:37:39;10.43;;;5.20;;
21480;SDS011;10902;48.158;8.634;2023-07-29T03:40:25;8.70;;;5.45;;
21480;SDS011;10902;48.158;8.634;2023-07-29T03:43:11;9.15;;;6.15;;
21480;SDS011;10902;48.158;8.634;2023-07-29T03:45:56;9.10;;;4.93;;
21480;SDS011;10902;48.158;8.634;2023-07-29T03:48:42;9.32;;;6.07;;
21480;SDS011;10902;48.158;8.634;2023-07-29T03:51:27;11.55;;;6.20;;
21480;SDS011;10902;48.158;8.634;2023-07-29T03:54:13;11.90;;;6.25;;
21480;SDS011;10902;48.158;8.634;2023-07-29T03:56:59;8.98;;;6.22;;
21480;SDS011;10902;48.158;8.634;2023-07-29T03:59:44;11.60;;;6.63;;
21480;SDS011;10902;48.158;8.634;2023-07-29T04:02:30;10.30;;;6.53;;
21480;SDS011;10902;48.158;8.634;2023-07-29T04:05:15;9.27;;;5.75;;
21480;SDS011;10902;48.158;8.634;2023-07-29T04:08:01;10.05;;;6.30;;
21480;SDS011;10902;48.158;8.634;2023-07-29T04:10:47;8.73;;;5.05;;
21480;SDS011;10902;48.158;8.634;2023-07-29T04:13:33;8.43;;;5.00;;
21480;SDS011;10902;48.158;8.634;2023-07-29T04:16:18;9.63;;;5.22;;
21480;SDS011;10902;48.158;8.634;2023-07-29T04:19:04;8.50;;;4.45;;
21480;SDS011;10902;48.158;8.634;2023-07-29T04:21:50;7.38;;;4.25;;
21480;SDS011;10902;48.158;8.634;2023-07-29T04:24:35;7.28;;;4.20;;
21480;SDS011;10902;48.158;8.634;2023-07-29T04:27:21;7.43;;;4.65;;
21480;SDS011;10902;48.158;8.634;2023-07-29T04:30:07;10.48;;;4.38;;
21480;SDS011;10902;48.158;8.634;2023-07-29T04:32:53;6.55;;;4.07;;
21480;SDS011;10902;48.158;8.634;2023-07-29T04:35:39;7.38;;;3.67;;
21480;SDS011;10902;48.158;8.634;2023-07-29T04:38:30;6.45;;;3.78;;
21480;SDS011;10902;48.158;8.634;2023-07-29T04:41:20;5.65;;;3.58;;
21480;SDS011;10902;48.158;8.634;2023-07-29T04:44:05;6.70;;;3.65;;
21480;SDS011;10902;48.158;8.634;2023-07-29T04:46:51;6.50;;;3.50;;
21480;SDS011;10902;48.158;8.634;2023-07-29T04:49:37;7.93;;;4.32;;
21480;SDS011;10902;48.158;8.634;2023-07-29T04:52:23;7.97;;;4.10;;
21480;SDS011;10902;48.158;8.634;2023-07-29T04:55:08;5.72;;;3.78;;
21480;SDS011;10902;48.158;8.634;2023-07-29T04:57:54;5.72;;;3.47;;
21480;SDS011;10902;48.158;8.634;2023-07-29T05:00:40;5.70;;;3.47;;
21480;SDS011;10902;48.158;8.634;2023-07-29T05:03:25;6.30;;;3.58;;
21480;SDS011;10902;48.158;8.634;2023-07-29T05:06:11;5.80;;;3.35;;
21480;SDS011;10902;48.158;8.634;2023-07-29T05:08:57;5.40;;;3.45;;
21480;SDS011;10902;48.158;8.634;2023-07-29T05:11:43;9.10;;;3.70;;
21480;SDS011;10902;48.158;8.634;2023-07-29T05:14:32;6.95;;;3.88;;
21480;SDS011;10902;48.158;8.634;2023-07-29T05:17:17;6.97;;;4.13;;
21480;SDS011;10902;48.158;8.634;2023-07-29T05:20:03;6.20;;;3.78;;
21480;SDS011;10902;48.158;8.634;2023-07-29T05:22:49;6.80;;;3.85;;
21480;SDS011;10902;48.158;8.634;2023-07-29T05:25:35;5.65;;;3.35;;
21480;SDS011;10902;48.158;8.634;2023-07-29T05:28:21;5.93;;;3.50;;
21480;SDS011;10902;48.158;8.634;2023-07-29T05:31:06;6.30;;;4.05;;
21480;SDS011;10902;48.158;8.634;2023-07-29T05:33:52;6.20;;;3.55;;
21480;SDS011;10902;48.158;8.634;2023-07-29T05:36:37;8.25;;;3.72;;
21480;SDS011;10902;48.158;8.634;2023-07-29T05:39:24;6.95;;;3.58;;
21480;SDS011;10902;48.158;8.634;2023-07-29T05:42:10;6.18;;;3.35;;
21480;SDS011;10902;48.158;8.634;2023-07-29T05:44:55;6.28;;;3.92;;
21480;SDS011;10902;48.158;8.634;2023-07-29T05:47:41;5.40;;;3.47;;
21480;SDS011;10902;48.158;8.634;2023-07-29T05:50:27;6.65;;;3.30;;
21480;SDS011;10902;48.158;8.634;2023-07-29T05:53:12;6.00;;;3.80;;
21480;SDS011;10902;48.158;8.634;2023-07-29T05:55:58;6.32;;;3.60;;
21480;SDS011;10902;48.158;8.634;2023-07-29T05:58:44;6.20;;;3.35;;
21480;SDS011;10902;48.158;8.634;2023-07-29T06:01:30;6.60;;;3.50;;
21480;SDS011;10902;48.158;8.634;2023-07-29T06:04:15;8.13;;;3.20;;
21480;SDS011;10902;48.158;8.634;2023-07-29T06:07:01;5.95;;;3.30;;
21480;SDS011;10902;48.158;8.634;2023-07-29T06:09:47;5.80;;;3.38;;
21480;SDS011;10902;48.158;8.634;2023-07-29T06:12:33;5.93;;;2.97;;
21480;SDS011;10902;48.158;8.634;2023-07-29T06:15:19;5.63;;;2.85;;
21480;SDS011;10902;48.158;8.634;2023-07-29T06:18:07;8.02;;;3.28;;
21480;SDS011;10902;48.158;8.634;2023-07-29T06:20:53;5.82;;;3.38;;
21480;SDS011;10902;48.158;8.634;2023-07-29T06:23:38;6.47;;;3.60;;
21480;SDS011;10902;48.158;8.634;2023-07-29T06:26:24;6.07;;;3.50;;
21480;SDS011;10902;48.158;8.634;2023-07-29T06:29:09;5.25;;;3.20;;
21480;SDS011;10902;48.158;8.634;2023-07-29T06:31:55;5.65;;;3.63;;
21480;SDS011;10902;48.158;8.634;2023-07-29T06:34:43;5.50;;;3.13;;
21480;SDS011;10902;48.158;8.634;2023-07-29T06:37:29;6.57;;;3.22;;
21480;SDS011;10902;48.158;8.634;2023-07-29T06:40:14;6.10;;;3.50;;
21480;SDS011;10902;48.158;8.634;2023-07-29T06:43:00;5.22;;;2.92;;
21480;SDS011;10902;48.158;8.634;2023-07-29T06:45:46;5.20;;;3.53;;
21480;SDS011;10902;48.158;8.634;2023-07-29T06:48:31;5.75;;;3.70;;
21480;SDS011;10902;48.158;8.634;2023-07-29T06:51:17;5.63;;;3.53;;
21480;SDS011;10902;48.158;8.634;2023-07-29T06:54:02;7.20;;;3.80;;
21480;SDS011;10902;48.158;8.634;2023-07-29T06:56:48;5.80;;;3.15;;
21480;SDS011;10902;48.158;8.634;2023-07-29T06:59:34;6.22;;;3.42;;
21480;SDS011;10902;48.158;8.634;2023-07-29T07:02:20;7.30;;;3.50;;
21480;SDS011;10902;48.158;8.634;2023-07-29T07:05:05;5.80;;;3.38;;
21480;SDS011;10902;48.158;8.634;2023-07-29T07:07:52;7.35;;;3.25;;
21480;SDS011;10902;48.158;8.634;2023-07-29T07:10:37;5.65;;;3.20;;
21480;SDS011;10902;48.158;8.634;2023-07-29T07:13:23;7.60;;;3.60;;
21480;SDS011;10902;48.158;8.634;2023-07-29T07:16:09;5.63;;;3.72;;
21480;SDS011;10902;48.158;8.634;2023-07-29T07:18:55;6.55;;;3.63;;
21480;SDS011;10902;48.158;8.634;2023-07-29T07:21:41;5.25;;;2.85;;
21480;SDS011;10902;48.158;8.634;2023-07-29T07:24:26;6.47;;;3.47;;
21480;SDS011;10902;48.158;8.634;2023-07-29T07:27:12;6.55;;;3.22;;
21480;SDS011;10902;48.158;8.634;2023-07-29T07:29:58;7.07;;;3.95;;
21480;SDS011;10902;48.158;8.634;2023-07-29T07:32:44;7.80;;;3.97;;
21480;SDS011;10902;48.158;8.634;2023-07-29T07:35:30;5.85;;;3.75;;
21480;SDS011;10902;48.158;8.634;2023-07-29T07:38:19;7.95;;;4.63;;
21480;SDS011;10902;48.158;8.634;2023-07-29T07:41:04;5.32;;;2.20;;
21480;SDS011;10902;48.158;8.634;2023-07-29T07:43:50;4.97;;;2.58;;
21480;SDS011;10902;48.158;8.634;2023-07-29T07:46:36;4.65;;;2.17;;
21480;SDS011;10902;48.158;8.634;2023-07-29T07:49:21;4.70;;;2.50;;
21480;SDS011;10902;48.158;8.634;2023-07-29T07:52:07;4.88;;;2.20;;
21480;SDS011;10902;48.158;8.634;2023-07-29T07:54:53;3.40;;;1.60;;
21480;SDS011;10902;48.158;8.634;2023-07-29T07:57:40;5.35;;;2.33;;
21480;SDS011;10902;48.158;8.634;2023-07-29T08:00:25;4.68;;;1.80;;
21480;SDS011;10902;48.158;8.634;2023-07-29T08:03:11;5.10;;;2.08;;
21480;SDS011;10902;48.158;8.634;2023-07-29T08:05:57;6.10;;;1.88;;
21480;SDS011;10902;48.158;8.634;2023-07-29T08:08:43;3.42;;;1.45;;
21480;SDS011;10902;48.158;8.634;2023-07-29T08:11:28;4.40;;;2.10;;
21480;SDS011;10902;48.158;8.634;2023-07-29T08:14:14;4.88;;;2.33;;
21480;SDS011;10902;48.158;8.634;2023-07-29T08:16:59;4.43;;;1.83;;
21480;SDS011;10902;48.158;8.634;2023-07-29T08:19:46;4.53;;;2.10;;
21480;SDS011;10902;48.158;8.634;2023-07-29T08:22:32;4.68;;;2.20;;
21480;SDS011;10902;48.158;8.634;2023-07-29T08:25:17;5.10;;;2.15;;
21480;SDS011;10902;48.158;8.634;2023-07-29T08:28:05;4.22;;;1.95;;
21480;SDS011;10902;48.158;8.634;2023-07-29T08:30:51;3.80;;;1.90;;
21480;SDS011;10902;48.158;8.634;2023-07-29T08:33:36;4.30;;;2.05;;
21480;SDS011;10902;48.158;8.634;2023-07-29T08:36:22;5.63;;;2.10;;
21480;SDS011;10902;48.158;8.634;2023-07-29T08:39:08;5.68;;;2.25;;
21480;SDS011;10902;48.158;8.634;2023-07-29T08:42:01;4.25;;;2.40;;
21480;SDS011;10902;48.158;8.634;2023-07-29T08:44:52;5.30;;;2.45;;
21480;SDS011;10902;48.158;8.634;2023-07-29T08:47:39;5.13;;;2.22;;
21480;SDS011;10902;48.158;8.634;2023-07-29T08:50:25;4.30;;;2.08;;
21480;SDS011;10902;48.158;8.634;2023-07-29T08:53:11;4.20;;;2.15;;
21480;SDS011;10902;48.158;8.634;2023-07-29T08:55:58;4.40;;;2.20;;
21480;SDS011;10902;48.158;8.634;2023-07-29T08:58:44;3.90;;;2.00;;
21480;SDS011;10902;48.158;8.634;2023-07-29T09:01:30;5.63;;;2.90;;
21480;SDS011;10902;48.158;8.634;2023-07-29T09:04:16;5.45;;;2.55;;
21480;SDS011;10902;48.158;8.634;2023-07-29T09:07:02;4.05;;;2.03;;
21480;SDS011;10902;48.158;8.634;2023-07-29T09:09:49;3.85;;;1.92;;
21480;SDS011;10902;48.158;8.634;2023-07-29T09:12:35;6.63;;;2.70;;
21480;SDS011;10902;48.158;8.634;2023-07-29T09:15:31;4.03;;;2.00;;
21480;SDS011;10902;48.158;8.634;2023-07-29T09:18:21;4.40;;;2.10;;
21480;SDS011;10902;48.158;8.634;2023-07-29T09:21:07;4.22;;;2.20;;
21480;SDS011;10902;48.158;8.634;2023-07-29T09:23:53;4.50;;;2.30;;
21480;SDS011;10902;48.158;8.634;2023-07-29T09:26:39;3.80;;;2.08;;
21480;SDS011;10902;48.158;8.634;2023-07-29T09:29:35;5.18;;;2.40;;
21480;SDS011;10902;48.158;8.634;2023-07-29T09:32:21;3.92;;;1.98;;
21480;SDS011;10902;48.158;8.634;2023-07-29T09:35:11;4.50;;;2.30;;
21480;SDS011;10902;48.158;8.634;2023-07-29T09:37:57;5.35;;;2.13;;
21480;SDS011;10902;48.158;8.634;2023-07-29T09:40:43;5.35;;;2.42;;
21480;SDS011;10902;48.158;8.634;2023-07-29T09:43:32;3.70;;;1.75;;
21480;SDS011;10902;48.158;8.634;2023-07-29T09:46:19;3.88;;;2.15;;
21480;SDS011;10902;48.158;8.634;2023-07-29T09:49:08;4.28;;;2.28;;
21480;SDS011;10902;48.158;8.634;2023-07-29T09:51:55;4.85;;;2.20;;
21480;SDS011;10902;48.158;8.634;2023-07-29T09:54:42;4.70;;;2.38;;
21480;SDS011;10902;48.158;8.634;2023-07-29T09:57:31;5.20;;;2.25;;
21480;SDS011;10902;48.158;8.634;2023-07-29T10:00:17;4.38;;;2.10;;
21480;SDS011;10902;48.158;8.634;2023-07-29T10:03:03;4.60;;;2.40;;
21480;SDS011;10902;48.158;8.634;2023-07-29T10:05:49;5.55;;;2.55;;
21480;SDS011;10902;48.158;8.634;2023-07-29T10:08:35;4.38;;;2.40;;
21480;SDS011;10902;48.158;8.634;2023-07-29T10:11:23;4.40;;;2.33;;
21480;SDS011;10902;48.158;8.634;2023-07-29T10:14:10;4.72;;;2.30;;
21480;SDS011;10902;48.158;8.634;2023-07-29T10:16:56;3.80;;;2.17;;
21480;SDS011;10902;48.158;8.634;2023-07-29T10:19:43;5.45;;;2.20;;
21480;SDS011;10902;48.158;8.634;2023-07-29T10:22:33;4.88;;;2.35;;
21480;SDS011;10902;48.158;8.634;2023-07-29T10:25:22;5.10;;;2.50;;
21480;SDS011;10902;48.158;8.634;2023-07-29T10:28:10;4.22;;;2.50;;
21480;SDS011;10902;48.158;8.634;2023-07-29T10:30:58;3.92;;;1.98;;
21480;SDS011;10902;48.158;8.634;2023-07-29T10:33:44;4.97;;;2.10;;
21480;SDS011;10902;48.158;8.634;2023-07-29T10:36:30;4.53;;;2.08;;
21480;SDS011;10902;48.158;8.634;2023-07-29T10:39:16;4.38;;;2.38;;
21480;SDS011;10902;48.158;8.634;2023-07-29T10:42:02;4.45;;;2.10;;
21480;SDS011;10902;48.158;8.634;2023-07-29T10:44:51;3.63;;;1.80;;
21480;SDS011;10902;48.158;8.634;2023-07-29T10:47:38;4.03;;;2.40;;
21480;SDS011;10902;48.158;8.634;2023-07-29T10:50:23;4.55;;;2.17;;
21480;SDS011;10902;48.158;8.634;2023-07-29T10:53:09;4.00;;;2.10;;
21480;SDS011;10902;48.158;8.634;2023-07-29T10:55:55;4.63;;;2.42;;
21480;SDS011;10902;48.158;8.634;2023-07-29T10:58:41;3.70;;;1.90;;
21480;SDS011;10902;48.158;8.634;2023-07-29T11:01:28;5.22;;;2.28;;
21480;SDS011;10902;48.158;8.634;2023-07-29T11:10:00;4.50;;;1.83;;
21480;SDS011;10902;48.158;8.634;2023-07-29T11:12:51;4.10;;;1.90;;
21480;SDS011;10902;48.158;8.634;2023-07-29T11:15:37;3.88;;;1.95;;
21480;SDS011;10902;48.158;8.634;2023-07-29T11:18:42;4.20;;;2.03;;
21480;SDS011;10902;48.158;8.634;2023-07-29T11:21:30;3.50;;;1.73;;
21480;SDS011;10902;48.158;8.634;2023-07-29T11:24:18;5.45;;;2.20;;
21480;SDS011;10902;48.158;8.634;2023-07-29T11:27:04;5.25;;;2.08;;
21480;SDS011;10902;48.158;8.634;2023-07-29T11:29:49;4.60;;;1.90;;
21480;SDS011;10902;48.158;8.634;2023-07-29T11:32:35;4.72;;;1.98;;
21480;SDS011;10902;48.158;8.634;2023-07-29T11:35:22;3.70;;;1.67;;
21480;SDS011;10902;48.158;8.634;2023-07-29T11:38:08;4.50;;;1.92;;
21480;SDS011;10902;48.158;8.634;2023-07-29T11:40:54;5.35;;;1.75;;
21480;SDS011;10902;48.158;8.634;2023-07-29T11:43:48;5.20;;;1.95;;
21480;SDS011;10902;48.158;8.634;2023-07-29T11:46:34;3.58;;;1.80;;
21480;SDS011;10902;48.158;8.634;2023-07-29T11:49:19;3.38;;;1.63;;
21480;SDS011;10902;48.158;8.634;2023-07-29T11:52:06;3.67;;;1.83;;
21480;SDS011;10902;48.158;8.634;2023-07-29T11:54:55;3.55;;;1.58;;
21480;SDS011;10902;48.158;8.634;2023-07-29T11:57:42;3.95;;;1.70;;
21480;SDS011;10902;48.158;8.634;2023-07-29T12:00:28;3.60;;;1.60;;
21480;SDS011;10902;48.158;8.634;2023-07-29T12:03:14;3.75;;;1.60;;
21480;SDS011;10902;48.158;8.634;2023-07-29T12:06:02;3.58;;;1.80;;
21480;SDS011;10902;48.158;8.634;2023-07-29T12:08:48;3.55;;;1.65;;
21480;SDS011;10902;48.158;8.634;2023-07-29T12:11:33;3.38;;;1.52;;
21480;SDS011;10902;48.158;8.634;2023-07-29T12:14:19;3.90;;;1.90;;
21480;SDS011;10902;48.158;8.634;2023-07-29T12:17:06;3.92;;;1.80;;
21480;SDS011;10902;48.158;8.634;2023-07-29T12:19:53;3.67;;;1.80;;
21480;SDS011;10902;48.158;8.634;2023-07-29T12:22:39;4.05;;;2.10;;
21480;SDS011;10902;48.158;8.634;2023-07-29T12:25:26;4.50;;;1.70;;
21480;SDS011;10902;48.158;8.634;2023-07-29T12:28:12;4.55;;;2.10;;
21480;SDS011;10902;48.158;8.634;2023-07-29T12:30:58;3.45;;;1.83;;
21480;SDS011;10902;48.158;8.634;2023-07-29T12:33:44;4.60;;;2.03;;
21480;SDS011;10902;48.158;8.634;2023-07-29T12:36:46;4.40;;;2.22;;
21480;SDS011;10902;48.158;8.634;2023-07-29T12:39:34;3.92;;;2.03;;
21480;SDS011;10902;48.158;8.634;2023-07-29T12:42:20;3.70;;;1.70;;
21480;SDS011;10902;48.158;8.634;2023-07-29T12:45:06;3.55;;;1.75;;
21480;SDS011;10902;48.158;8.634;2023-07-29T12:47:52;4.28;;;2.28;;
21480;SDS011;10902;48.158;8.634;2023-07-29T12:50:38;4.03;;;2.03;;
21480;SDS011;10902;48.158;8.634;2023-07-29T12:53:23;3.50;;;1.90;;
21480;SDS011;10902;48.158;8.634;2023-07-29T12:56:09;4.05;;;1.95;;
21480;SDS011;10902;48.158;8.634;2023-07-29T12:58:55;3.83;;;1.73;;
21480;SDS011;10902;48.158;8.634;2023-07-29T13:01:40;3.60;;;2.00;;
21480;SDS011;10902;48.158;8.634;2023-07-29T13:04:26;4.05;;;1.80;;
21480;SDS011;10902;48.158;8.634;2023-07-29T13:07:11;4.07;;;1.88;;
21480;SDS011;10902;48.158;8.634;2023-07-29T13:09:57;4.13;;;2.10;;
21480;SDS011;10902;48.158;8.634;2023-07-29T13:12:42;3.85;;;1.67;;
21480;SDS011;10902;48.158;8.634;2023-07-29T13:15:28;3.47;;;1.90;;
21480;SDS011;10902;48.158;8.634;2023-07-29T13:18:14;3.88;;;2.00;;
21480;SDS011;10902;48.158;8.634;2023-07-29T13:20:59;4.07;;;1.77;;
21480;SDS011;10902;48.158;8.634;2023-07-29T13:23:45;4.05;;;1.83;;
21480;SDS011;10902;48.158;8.634;2023-07-29T13:26:31;3.70;;;1.92;;
21480;SDS011;10902;48.158;8.634;2023-07-29T13:29:17;4.53;;;1.60;;
21480;SDS011;10902;48.158;8.634;2023-07-29T13:32:02;3.95;;;1.80;;
21480;SDS011;10902;48.158;8.634;2023-07-29T13:34:48;3.10;;;1.50;;
21480;SDS011;10902;48.158;8.634;2023-07-29T13:37:34;3.72;;;1.80;;
21480;SDS011;10902;48.158;8.634;2023-07-29T13:40:20;3.67;;;2.25;;
21480;SDS011;10902;48.158;8.634;2023-07-29T13:43:06;3.90;;;1.65;;
21480;SDS011;10902;48.158;8.634;2023-07-29T13:45:52;3.78;;;1.60;;
21480;SDS011;10902;48.158;8.634;2023-07-29T13:48:37;4.40;;;1.80;;
21480;SDS011;10902;48.158;8.634;2023-07-29T13:51:23;3.60;;;1.80;;
21480;SDS011;10902;48.158;8.634;2023-07-29T13:54:09;4.82;;;2.03;;
21480;SDS011;10902;48.158;8.634;2023-07-29T13:56:54;3.40;;;1.67;;
21480;SDS011;10902;48.158;8.634;2023-07-29T13:59:40;4.70;;;2.42;;
21480;SDS011;10902;48.158;8.634;2023-07-29T14:02:25;3.67;;;1.63;;
21480;SDS011;10902;48.158;8.634;2023-07-29T14:05:11;3.97;;;1.80;;
21480;SDS011;10902;48.158;8.634;2023-07-29T14:07:57;3.90;;;1.85;;
21480;SDS011;10902;48.158;8.634;2023-07-29T14:10:43;4.13;;;1.90;;
21480;SDS011;10902;48.158;8.634;2023-07-29T14:13:28;5.40;;;2.03;;
21480;SDS011;10902;48.158;8.634;2023-07-29T14:16:14;3.20;;;1.50;;
21480;SDS011;10902;48.158;8.634;2023-07-29T14:18:59;4.13;;;1.70;;
21480;SDS011;10902;48.158;8.634;2023-07-29T14:21:45;3.30;;;1.52;;
21480;SDS011;10902;48.158;8.634;2023-07-29T14:24:31;3.92;;;1.67;;
21480;SDS011;10902;48.158;8.634;2023-07-29T14:27:16;3.85;;;1.60;;
21480;SDS011;10902;48.158;8.634;2023-07-29T14:30:03;3.13;;;1.60;;
21480;SDS011;10902;48.158;8.634;2023-07-29T14:32:50;3.30;;;1.73;;
21480;SDS011;10902;48.158;8.634;2023-07-29T14:35:35;3.83;;;1.77;;
21480;SDS011;10902;48.158;8.634;2023-07-29T14:38:21;2.97;;;1.50;;
21480;SDS011;10902;48.158;8.634;2023-07-29T14:41:07;3.13;;;1.42;;
21480;SDS011;10902;48.158;8.634;2023-07-29T14:43:53;5.18;;;1.75;;
21480;SDS011;10902;48.158;8.634;2023-07-29T14:46:39;4.03;;;1.45;;
21480;SDS011;10902;48.158;8.634;2023-07-29T14:49:24;3.55;;;1.90;;
21480;SDS011;10902;48.158;8.634;2023-07-29T14:52:10;3.30;;;1.50;;
21480;SDS011;10902;48.158;8.634;2023-07-29T14:54:56;5.28;;;1.90;;
21480;SDS011;10902;48.158;8.634;2023-07-29T14:57:41;4.25;;;1.50;;
21480;SDS011;10902;48.158;8.634;2023-07-29T15:00:27;3.90;;;1.60;;
21480;SDS011;10902;48.158;8.634;2023-07-29T15:03:14;4.45;;;1.90;;
21480;SDS011;10902;48.158;8.634;2023-07-29T15:06:00;3.60;;;1.80;;
21480;SDS011;10902;48.158;8.634;2023-07-29T15:08:48;4.95;;;2.13;;
21480;SDS011;10902;48.158;8.634;2023-07-29T15:11:33;3.70;;;1.90;;
21480;SDS011;10902;48.158;8.634;2023-07-29T15:14:19;4.53;;;2.15;;
21480;SDS011;10902;48.158;8.634;2023-07-29T15:17:05;4.45;;;2.20;;
21480;SDS011;10902;48.158;8.634;2023-07-29T15:19:51;3.85;;;1.75;;
21480;SDS011;10902;48.158;8.634;2023-07-29T15:22:37;4.90;;;2.00;;
21480;SDS011;10902;48.158;8.634;2023-07-29T15:25:23;3.75;;;2.05;;
21480;SDS011;10902;48.158;8.634;2023-07-29T15:28:08;5.20;;;2.40;;
21480;SDS011;10902;48.158;8.634;2023-07-29T15:30:54;3.65;;;1.92;;
21480;SDS011;10902;48.158;8.634;2023-07-29T15:33:39;3.60;;;1.73;;
21480;SDS011;10902;48.158;8.634;2023-07-29T15:36:25;4.53;;;2.22;;
21480;SDS011;10902;48.158;8.634;2023-07-29T15:39:11;4.22;;;2.10;;
21480;SDS011;10902;48.158;8.634;2023-07-29T15:41:56;4.45;;;2.15;;
21480;SDS011;10902;48.158;8.634;2023-07-29T15:44:43;4.10;;;2.15;;
21480;SDS011;10902;48.158;8.634;2023-07-29T15:47:34;4.30;;;2.42;;
21480;SDS011;10902;48.158;8.634;2023-07-29T15:50:22;4.72;;;2.20;;
21480;SDS011;10902;48.158;8.634;2023-07-29T15:53:08;5.20;;;2.75;;
21480;SDS011;10902;48.158;8.634;2023-07-29T15:55:53;4.85;;;2.40;;
21480;SDS011;10902;48.158;8.634;2023-07-29T15:58:39;4.85;;;2.60;;
21480;SDS011;10902;48.158;8.634;2023-07-29T16:01:25;4.72;;;2.42;;
21480;SDS011;10902;48.158;8.634;2023-07-29T16:04:11;6.15;;;2.30;;
21480;SDS011;10902;48.158;8.634;2023-07-29T16:06:57;4.60;;;2.35;;
21480;SDS011;10902;48.158;8.634;2023-07-29T16:09:43;4.82;;;2.53;;
21480;SDS011;10902;48.158;8.634;2023-07-29T16:12:28;5.63;;;2.65;;
21480;SDS011;10902;48.158;8.634;2023-07-29T16:15:14;4.90;;;2.38;;
21480;SDS011;10902;48.158;8.634;2023-07-29T16:17:59;5.00;;;2.35;;
21480;SDS011;10902;48.158;8.634;2023-07-29T16:20:46;6.03;;;2.70;;
21480;SDS011;10902;48.158;8.634;2023-07-29T16:23:34;4.15;;;2.50;;
21480;SDS011;10902;48.158;8.634;2023-07-29T16:26:20;6.07;;;3.00;;
21480;SDS011;10902;48.158;8.634;2023-07-29T16:29:06;5.63;;;2.60;;
21480;SDS011;10902;48.158;8.634;2023-07-29T16:39:53;4.55;;;2.10;;
21480;SDS011;10902;48.158;8.634;2023-07-29T16:42:39;5.15;;;2.45;;
21480;SDS011;10902;48.158;8.634;2023-07-29T16:45:25;5.90;;;2.03;;
21480;SDS011;10902;48.158;8.634;2023-07-29T16:48:15;4.38;;;2.17;;
21480;SDS011;10902;48.158;8.634;2023-07-29T16:51:01;4.05;;;2.10;;
21480;SDS011;10902;48.158;8.634;2023-07-29T16:53:46;4.07;;;2.08;;
21480;SDS011;10902;48.158;8.634;2023-07-29T16:56:33;4.15;;;2.08;;
21480;SDS011;10902;48.158;8.634;2023-07-29T16:59:18;4.00;;;2.08;;
21480;SDS011;10902;48.158;8.634;2023-07-29T17:02:04;4.93;;;2.20;;